sensor_id;sensor_type;location;lat;lon;timestamp;pressure;altitude;pressure_sealevel;temperature;humidity
71485;BME280;59300;52.074;4.758;2022-12-07T00:01:55;101924.66;;;2.39;100.00
71485;BME280;59300;52.074;4.758;2022-12-07T00:04:56;101920.75;;;2.20;100.00
71485;BME280;59300;52.074;4.758;2022-12-07T00:07:58;101915.84;;;1.97;100.00
71485;BME280;59300;52.074;4.758;2022-12-07T00:11:03;101917.47;;;1.92;100.00
71485;BME280;59300;52.074;4.758;2022-12-07T00:14:07;101919.25;;;1.94;100.00
71485;BME280;59300;52.074;4.758;2022-12-07T00:17:10;101921.25;;;2.05;100.00
71485;BME280;59300;52.074;4.758;2022-12-07T00:20:12;101916.22;;;2.12;100.00
71485;BME280;59300;52.074;4.758;2022-12-07T00:23:13;101919.44;;;2.02;100.00
71485;BME280;59300;52.074;4.758;2022-12-07T00:26:20;101914.78;;;1.89;100.00
71485;BME280;59300;52.074;4.758;2022-12-07T00:29:21;101907.38;;;1.71;100.00
71485;BME280;59300;52.074;4.758;2022-12-07T00:32:23;101909.47;;;1.52;100.00
71485;BME280;59300;52.074;4.758;2022-12-07T00:35:24;101899.22;;;1.25;100.00
71485;BME280;59300;52.074;4.758;2022-12-07T00:38:31;101894.19;;;0.99;100.00
71485;BME280;59300;52.074;4.758;2022-12-07T00:41:32;101896.13;;;0.75;100.00
71485;BME280;59300;52.074;4.758;2022-12-07T00:44:34;101889.81;;;0.67;100.00
71485;BME280;59300;52.074;4.758;2022-12-07T00:47:35;101891.59;;;0.70;100.00
71485;BME280;59300;52.074;4.758;2022-12-07T00:50:37;101902.72;;;0.95;100.00
71485;BME280;59300;52.074;4.758;2022-12-07T00:53:39;101903.97;;;1.07;100.00
71485;BME280;59300;52.074;4.758;2022-12-07T00:56:42;101907.47;;;1.40;100.00
71485;BME280;59300;52.074;4.758;2022-12-07T00:59:44;101904.34;;;1.53;100.00
71485;BME280;59300;52.074;4.758;2022-12-07T01:02:45;101899.78;;;1.78;100.00
71485;BME280;59300;52.074;4.758;2022-12-07T01:05:52;101897.13;;;1.77;100.00
71485;BME280;59300;52.074;4.758;2022-12-07T01:08:54;101899.53;;;1.69;100.00
71485;BME280;59300;52.074;4.758;2022-12-07T01:11:56;101902.56;;;1.52;100.00
71485;BME280;59300;52.074;4.758;2022-12-07T01:14:57;101904.97;;;1.45;100.00
71485;BME280;59300;52.074;4.758;2022-12-07T01:17:59;101912.75;;;1.43;100.00
71485;BME280;59300;52.074;4.758;2022-12-07T01:24:05;101910.97;;;1.42;100.00
71485;BME280;59300;52.074;4.758;2022-12-07T01:27:07;101920.69;;;1.49;100.00
71485;BME280;59300;52.074;4.758;2022-12-07T01:30:10;101921.16;;;1.66;100.00
71485;BME280;59300;52.074;4.758;2022-12-07T01:33:12;101902.63;;;1.89;100.00
71485;BME280;59300;52.074;4.758;2022-12-07T01:39:24;101891.84;;;2.10;100.00
71485;BME280;59300;52.074;4.758;2022-12-07T01:42:26;101887.97;;;1.93;100.00
71485;BME280;59300;52.074;4.758;2022-12-07T01:48:38;101893.25;;;1.96;100.00
71485;BME280;59300;52.074;4.758;2022-12-07T01:51:43;101898.75;;;2.08;100.00
71485;BME280;59300;52.074;4.758;2022-12-07T01:54:47;101899.13;;;2.24;100.00
71485;BME280;59300;52.074;4.758;2022-12-07T01:57:52;101896.84;;;2.38;100.00
71485;BME280;59300;52.074;4.758;2022-12-07T02:00:54;101901.16;;;2.37;100.00
71485;BME280;59300;52.074;4.758;2022-12-07T02:03:56;101895.13;;;2.40;100.00
71485;BME280;59300;52.074;4.758;2022-12-07T02:06:59;101903.94;;;2.43;100.00
71485;BME280;59300;52.074;4.758;2022-12-07T02:10:22;101897.91;;;2.48;100.00
71485;BME280;59300;52.074;4.758;2022-12-07T02:13:36;101886.81;;;2.55;100.00
71485;BME280;59300;52.074;4.758;2022-12-07T02:16:41;101887.72;;;2.57;100.00
71485;BME280;59300;52.074;4.758;2022-12-07T02:26:23;101884.28;;;2.58;100.00
71485;BME280;59300;52.074;4.758;2022-12-07T02:29:33;101874.47;;;2.48;100.00
71485;BME280;59300;52.074;4.758;2022-12-07T02:32:44;101874.75;;;2.22;100.00
71485;BME280;59300;52.074;4.758;2022-12-07T02:36:28;101870.44;;;1.86;100.00
71485;BME280;59300;52.074;4.758;2022-12-07T02:39:46;101876.53;;;1.51;100.00
71485;BME280;59300;52.074;4.758;2022-12-07T02:42:55;101878.28;;;1.18;100.00
71485;BME280;59300;52.074;4.758;2022-12-07T02:46:04;101871.47;;;0.91;100.00
71485;BME280;59300;52.074;4.758;2022-12-07T02:49:07;101868.41;;;0.76;100.00
71485;BME280;59300;52.074;4.758;2022-12-07T02:52:10;101860.16;;;0.60;100.00
71485;BME280;59300;52.074;4.758;2022-12-07T02:55:12;101856.25;;;0.44;100.00
71485;BME280;59300;52.074;4.758;2022-12-07T02:58:27;101861.19;;;0.37;100.00
71485;BME280;59300;52.074;4.758;2022-12-07T03:11:47;101874.25;;;1.30;100.00
71485;BME280;59300;52.074;4.758;2022-12-07T03:14:57;101869.91;;;1.30;100.00
71485;BME280;59300;52.074;4.758;2022-12-07T03:18:03;101875.41;;;1.09;100.00
71485;BME280;59300;52.074;4.758;2022-12-07T03:21:11;101868.78;;;0.88;100.00
71485;BME280;59300;52.074;4.758;2022-12-07T03:24:19;101869.97;;;0.71;100.00
71485;BME280;59300;52.074;4.758;2022-12-07T03:27:25;101859.94;;;0.53;100.00
71485;BME280;59300;52.074;4.758;2022-12-07T03:30:59;101865.78;;;0.45;100.00
71485;BME280;59300;52.074;4.758;2022-12-07T03:37:20;101872.22;;;1.53;100.00
71485;BME280;59300;52.074;4.758;2022-12-07T03:40:42;101856.50;;;1.83;100.00
71485;BME280;59300;52.074;4.758;2022-12-07T03:43:46;101852.69;;;2.06;100.00
71485;BME280;59300;52.074;4.758;2022-12-07T03:47:01;101851.28;;;2.19;100.00
71485;BME280;59300;52.074;4.758;2022-12-07T03:53:15;101849.63;;;2.24;100.00
71485;BME280;59300;52.074;4.758;2022-12-07T03:56:20;101842.75;;;2.27;100.00
71485;BME280;59300;52.074;4.758;2022-12-07T03:59:23;101845.22;;;2.20;100.00
71485;BME280;59300;52.074;4.758;2022-12-07T04:02:27;101847.66;;;2.13;100.00
71485;BME280;59300;52.074;4.758;2022-12-07T04:05:29;101838.56;;;1.96;100.00
71485;BME280;59300;52.074;4.758;2022-12-07T04:08:31;101844.19;;;1.76;100.00
71485;BME280;59300;52.074;4.758;2022-12-07T04:11:32;101842.81;;;1.56;100.00
71485;BME280;59300;52.074;4.758;2022-12-07T04:14:34;101842.13;;;1.29;100.00
71485;BME280;59300;52.074;4.758;2022-12-07T04:17:35;101841.47;;;1.04;100.00
71485;BME280;59300;52.074;4.758;2022-12-07T04:20:37;101839.44;;;0.93;100.00
71485;BME280;59300;52.074;4.758;2022-12-07T04:23:39;101844.28;;;0.80;100.00
71485;BME280;59300;52.074;4.758;2022-12-07T04:26:41;101845.38;;;0.88;100.00
71485;BME280;59300;52.074;4.758;2022-12-07T04:29:42;101839.78;;;1.05;100.00
71485;BME280;59300;52.074;4.758;2022-12-07T04:32:44;101839.31;;;1.21;100.00
71485;BME280;59300;52.074;4.758;2022-12-07T04:35:45;101835.66;;;1.47;100.00
71485;BME280;59300;52.074;4.758;2022-12-07T04:38:47;101856.88;;;1.99;100.00
71485;BME280;59300;52.074;4.758;2022-12-07T04:41:49;101849.00;;;2.34;100.00
71485;BME280;59300;52.074;4.758;2022-12-07T04:44:50;101836.44;;;2.56;100.00
71485;BME280;59300;52.074;4.758;2022-12-07T04:47:52;101828.56;;;2.54;100.00
71485;BME280;59300;52.074;4.758;2022-12-07T04:50:54;101818.13;;;2.53;100.00
71485;BME280;59300;52.074;4.758;2022-12-07T04:53:56;101826.94;;;2.58;100.00
71485;BME280;59300;52.074;4.758;2022-12-07T04:56:57;101813.69;;;2.49;100.00
71485;BME280;59300;52.074;4.758;2022-12-07T04:59:59;101824.03;;;2.44;100.00
71485;BME280;59300;52.074;4.758;2022-12-07T05:03:01;101818.66;;;2.36;100.00
71485;BME280;59300;52.074;4.758;2022-12-07T05:06:03;101809.78;;;2.28;100.00
71485;BME280;59300;52.074;4.758;2022-12-07T05:09:12;101813.69;;;2.07;100.00
71485;BME280;59300;52.074;4.758;2022-12-07T05:12:13;101809.81;;;1.90;100.00
71485;BME280;59300;52.074;4.758;2022-12-07T05:15:15;101815.25;;;1.62;100.00
71485;BME280;59300;52.074;4.758;2022-12-07T05:18:17;101819.00;;;1.40;100.00
71485;BME280;59300;52.074;4.758;2022-12-07T05:21:19;101814.34;;;1.27;100.00
71485;BME280;59300;52.074;4.758;2022-12-07T05:24:20;101826.94;;;1.11;100.00
71485;BME280;59300;52.074;4.758;2022-12-07T05:27:22;101826.69;;;1.02;100.00
71485;BME280;59300;52.074;4.758;2022-12-07T05:30:24;101821.06;;;0.86;100.00
71485;BME280;59300;52.074;4.758;2022-12-07T05:33:26;101821.16;;;0.89;100.00
71485;BME280;59300;52.074;4.758;2022-12-07T05:36:28;101830.66;;;1.21;100.00
71485;BME280;59300;52.074;4.758;2022-12-07T05:39:30;101834.34;;;1.64;100.00
71485;BME280;59300;52.074;4.758;2022-12-07T05:42:31;101833.09;;;2.22;100.00
71485;BME280;59300;52.074;4.758;2022-12-07T05:45:33;101832.66;;;2.83;100.00
71485;BME280;59300;52.074;4.758;2022-12-07T05:48:34;101834.69;;;2.99;100.00
71485;BME280;59300;52.074;4.758;2022-12-07T05:51:36;101818.94;;;2.93;100.00
71485;BME280;59300;52.074;4.758;2022-12-07T05:54:37;101810.06;;;2.85;100.00
71485;BME280;59300;52.074;4.758;2022-12-07T05:57:38;101819.22;;;2.64;100.00
71485;BME280;59300;52.074;4.758;2022-12-07T06:00:40;101826.94;;;2.58;100.00
71485;BME280;59300;52.074;4.758;2022-12-07T06:03:41;101824.06;;;2.45;100.00
71485;BME280;59300;52.074;4.758;2022-12-07T06:06:43;101817.59;;;2.28;100.00
71485;BME280;59300;52.074;4.758;2022-12-07T06:09:47;101811.59;;;1.92;100.00
71485;BME280;59300;52.074;4.758;2022-12-07T06:12:48;101811.53;;;1.54;100.00
71485;BME280;59300;52.074;4.758;2022-12-07T06:15:50;101817.78;;;1.26;100.00
71485;BME280;59300;52.074;4.758;2022-12-07T06:18:51;101816.09;;;0.96;100.00
71485;BME280;59300;52.074;4.758;2022-12-07T06:21:54;101809.16;;;0.64;100.00
71485;BME280;59300;52.074;4.758;2022-12-07T06:24:56;101814.50;;;0.38;100.00
71485;BME280;59300;52.074;4.758;2022-12-07T06:27:57;101812.19;;;0.19;100.00
71485;BME280;59300;52.074;4.758;2022-12-07T06:31:00;101824.00;;;0.09;100.00
71485;BME280;59300;52.074;4.758;2022-12-07T06:34:14;101833.28;;;0.29;100.00
71485;BME280;59300;52.074;4.758;2022-12-07T06:37:16;101821.41;;;0.38;100.00
71485;BME280;59300;52.074;4.758;2022-12-07T06:40:18;101836.69;;;0.57;100.00
71485;BME280;59300;52.074;4.758;2022-12-07T06:43:19;101828.53;;;1.40;100.00
71485;BME280;59300;52.074;4.758;2022-12-07T06:46:21;101833.69;;;1.73;100.00
71485;BME280;59300;52.074;4.758;2022-12-07T06:49:22;101837.13;;;1.72;100.00
71485;BME280;59300;52.074;4.758;2022-12-07T06:52:24;101847.00;;;1.86;100.00
71485;BME280;59300;52.074;4.758;2022-12-07T06:55:25;101841.03;;;1.90;100.00
71485;BME280;59300;52.074;4.758;2022-12-07T06:58:27;101832.41;;;1.92;100.00
71485;BME280;59300;52.074;4.758;2022-12-07T07:01:29;101836.69;;;1.90;100.00
71485;BME280;59300;52.074;4.758;2022-12-07T07:04:30;101832.19;;;1.81;100.00
71485;BME280;59300;52.074;4.758;2022-12-07T07:07:32;101835.81;;;1.53;100.00
71485;BME280;59300;52.074;4.758;2022-12-07T07:10:52;101838.34;;;1.16;100.00
71485;BME280;59300;52.074;4.758;2022-12-07T07:13:53;101834.78;;;0.82;100.00
71485;BME280;59300;52.074;4.758;2022-12-07T07:16:55;101829.81;;;0.59;100.00
71485;BME280;59300;52.074;4.758;2022-12-07T07:19:57;101820.69;;;0.42;100.00
71485;BME280;59300;52.074;4.758;2022-12-07T07:22:58;101824.56;;;0.27;100.00
71485;BME280;59300;52.074;4.758;2022-12-07T07:26:00;101831.06;;;0.13;100.00
71485;BME280;59300;52.074;4.758;2022-12-07T07:29:01;101828.13;;;0.02;100.00
71485;BME280;59300;52.074;4.758;2022-12-07T07:32:03;101837.34;;;-0.08;100.00
71485;BME280;59300;52.074;4.758;2022-12-07T07:35:07;101835.38;;;-0.15;100.00
71485;BME280;59300;52.074;4.758;2022-12-07T07:38:08;101828.63;;;-0.10;100.00
71485;BME280;59300;52.074;4.758;2022-12-07T07:41:10;101836.03;;;0.07;100.00
71485;BME280;59300;52.074;4.758;2022-12-07T07:44:12;101834.19;;;0.32;100.00
71485;BME280;59300;52.074;4.758;2022-12-07T07:47:13;101829.56;;;0.50;100.00
71485;BME280;59300;52.074;4.758;2022-12-07T07:50:16;101842.44;;;0.76;100.00
71485;BME280;59300;52.074;4.758;2022-12-07T07:53:17;101839.72;;;1.03;100.00
71485;BME280;59300;52.074;4.758;2022-12-07T07:56:19;101834.69;;;1.10;100.00
71485;BME280;59300;52.074;4.758;2022-12-07T07:59:20;101833.78;;;1.09;100.00
71485;BME280;59300;52.074;4.758;2022-12-07T08:02:22;101834.38;;;1.31;100.00
71485;BME280;59300;52.074;4.758;2022-12-07T08:05:23;101839.97;;;1.46;100.00
71485;BME280;59300;52.074;4.758;2022-12-07T08:08:25;101829.50;;;1.43;100.00
71485;BME280;59300;52.074;4.758;2022-12-07T08:11:27;101834.38;;;1.31;100.00
71485;BME280;59300;52.074;4.758;2022-12-07T08:14:28;101842.63;;;1.14;100.00
71485;BME280;59300;52.074;4.758;2022-12-07T08:17:30;101851.00;;;1.04;100.00
71485;BME280;59300;52.074;4.758;2022-12-07T08:20:32;101847.63;;;1.08;100.00
71485;BME280;59300;52.074;4.758;2022-12-07T08:23:34;101843.78;;;1.26;100.00
71485;BME280;59300;52.074;4.758;2022-12-07T08:26:40;101843.88;;;1.64;100.00
71485;BME280;59300;52.074;4.758;2022-12-07T08:29:42;101860.59;;;2.10;100.00
71485;BME280;59300;52.074;4.758;2022-12-07T08:32:47;101861.44;;;2.48;100.00
71485;BME280;59300;52.074;4.758;2022-12-07T08:35:49;101856.75;;;2.72;100.00
71485;BME280;59300;52.074;4.758;2022-12-07T08:38:50;101852.28;;;2.67;100.00
71485;BME280;59300;52.074;4.758;2022-12-07T08:42:12;101852.34;;;2.68;100.00
71485;BME280;59300;52.074;4.758;2022-12-07T08:45:14;101854.91;;;2.67;100.00
71485;BME280;59300;52.074;4.758;2022-12-07T08:48:16;101848.16;;;2.76;100.00
71485;BME280;59300;52.074;4.758;2022-12-07T08:51:18;101846.66;;;2.88;100.00
71485;BME280;59300;52.074;4.758;2022-12-07T08:54:21;101838.06;;;2.94;100.00
71485;BME280;59300;52.074;4.758;2022-12-07T08:57:22;101833.75;;;2.96;100.00
71485;BME280;59300;52.074;4.758;2022-12-07T09:00:24;101837.97;;;2.89;100.00
71485;BME280;59300;52.074;4.758;2022-12-07T09:03:26;101841.06;;;2.69;100.00
71485;BME280;59300;52.074;4.758;2022-12-07T09:06:28;101832.03;;;2.53;100.00
71485;BME280;59300;52.074;4.758;2022-12-07T09:09:30;101827.72;;;2.54;100.00
71485;BME280;59300;52.074;4.758;2022-12-07T09:12:31;101843.13;;;2.86;100.00
71485;BME280;59300;52.074;4.758;2022-12-07T09:15:33;101837.03;;;3.31;100.00
71485;BME280;59300;52.074;4.758;2022-12-07T09:18:34;101838.66;;;3.75;100.00
71485;BME280;59300;52.074;4.758;2022-12-07T09:21:36;101834.63;;;3.97;100.00
71485;BME280;59300;52.074;4.758;2022-12-07T09:24:37;101841.59;;;3.98;100.00
71485;BME280;59300;52.074;4.758;2022-12-07T09:27:39;101843.41;;;4.03;100.00
71485;BME280;59300;52.074;4.758;2022-12-07T09:30:47;101843.56;;;4.12;100.00
71485;BME280;59300;52.074;4.758;2022-12-07T09:34:09;101847.59;;;3.91;100.00
71485;BME280;59300;52.074;4.758;2022-12-07T09:37:10;101842.03;;;3.69;100.00
71485;BME280;59300;52.074;4.758;2022-12-07T09:40:13;101848.00;;;3.62;100.00
71485;BME280;59300;52.074;4.758;2022-12-07T09:43:18;101842.63;;;3.53;100.00
71485;BME280;59300;52.074;4.758;2022-12-07T09:46:20;101843.97;;;3.31;100.00
71485;BME280;59300;52.074;4.758;2022-12-07T09:49:24;101829.84;;;3.18;100.00
71485;BME280;59300;52.074;4.758;2022-12-07T09:52:27;101840.28;;;3.19;100.00
71485;BME280;59300;52.074;4.758;2022-12-07T09:55:38;101831.63;;;3.22;100.00
71485;BME280;59300;52.074;4.758;2022-12-07T09:58:39;101834.25;;;3.22;100.00
71485;BME280;59300;52.074;4.758;2022-12-07T10:01:42;101829.94;;;3.24;100.00
71485;BME280;59300;52.074;4.758;2022-12-07T10:04:44;101821.38;;;3.31;100.00
71485;BME280;59300;52.074;4.758;2022-12-07T10:07:46;101817.16;;;3.38;100.00
71485;BME280;59300;52.074;4.758;2022-12-07T10:10:54;101822.59;;;3.53;100.00
71485;BME280;59300;52.074;4.758;2022-12-07T10:14:10;101823.50;;;4.11;100.00
71485;BME280;59300;52.074;4.758;2022-12-07T10:20:33;101828.16;;;5.03;100.00
71485;BME280;59300;52.074;4.758;2022-12-07T10:23:36;101828.81;;;4.83;100.00
71485;BME280;59300;52.074;4.758;2022-12-07T10:29:50;101823.78;;;5.00;100.00
71485;BME280;59300;52.074;4.758;2022-12-07T10:32:52;101823.06;;;5.17;100.00
71485;BME280;59300;52.074;4.758;2022-12-07T10:35:54;101809.19;;;5.22;100.00
71485;BME280;59300;52.074;4.758;2022-12-07T10:39:23;101808.13;;;5.05;100.00
71485;BME280;59300;52.074;4.758;2022-12-07T10:42:30;101803.84;;;5.10;100.00
71485;BME280;59300;52.074;4.758;2022-12-07T10:45:32;101802.31;;;5.35;100.00
71485;BME280;59300;52.074;4.758;2022-12-07T10:52:48;101791.88;;;5.40;100.00
71485;BME280;59300;52.074;4.758;2022-12-07T10:59:49;101788.88;;;5.00;100.00
71485;BME280;59300;52.074;4.758;2022-12-07T11:26:47;101747.56;;;5.65;100.00
71485;BME280;59300;52.074;4.758;2022-12-07T11:33:17;101746.19;;;6.30;100.00
71485;BME280;59300;52.074;4.758;2022-12-07T11:36:38;101739.25;;;6.40;100.00
71485;BME280;59300;52.074;4.758;2022-12-07T11:39:49;101734.06;;;6.60;100.00
71485;BME280;59300;52.074;4.758;2022-12-07T11:46:38;101727.16;;;6.86;100.00
71485;BME280;59300;52.074;4.758;2022-12-07T11:56:14;101706.16;;;7.01;100.00
71485;BME280;59300;52.074;4.758;2022-12-07T11:59:21;101710.53;;;6.91;100.00
71485;BME280;59300;52.074;4.758;2022-12-07T12:02:43;101710.50;;;6.71;100.00
71485;BME280;59300;52.074;4.758;2022-12-07T12:05:48;101701.72;;;6.48;100.00
71485;BME280;59300;52.074;4.758;2022-12-07T12:09:05;101706.03;;;6.33;100.00
71485;BME280;59300;52.074;4.758;2022-12-07T12:12:54;101703.88;;;5.61;100.00
71485;BME280;59300;52.074;4.758;2022-12-07T12:20:24;101708.59;;;4.92;100.00
71485;BME280;59300;52.074;4.758;2022-12-07T12:23:41;101717.09;;;4.70;100.00
71485;BME280;59300;52.074;4.758;2022-12-07T12:27:07;101713.34;;;4.46;100.00
71485;BME280;59300;52.074;4.758;2022-12-07T12:30:26;101707.88;;;4.26;100.00
71485;BME280;59300;52.074;4.758;2022-12-07T12:33:31;101708.78;;;4.28;100.00
71485;BME280;59300;52.074;4.758;2022-12-07T12:39:35;101700.34;;;4.51;100.00
71485;BME280;59300;52.074;4.758;2022-12-07T12:43:27;101693.56;;;4.70;100.00
71485;BME280;59300;52.074;4.758;2022-12-07T12:49:35;101685.84;;;4.82;100.00
71485;BME280;59300;52.074;4.758;2022-12-07T12:59:28;101657.50;;;5.43;100.00
71485;BME280;59300;52.074;4.758;2022-12-07T13:02:32;101651.53;;;5.64;100.00
71485;BME280;59300;52.074;4.758;2022-12-07T13:05:35;101663.00;;;5.86;100.00
71485;BME280;59300;52.074;4.758;2022-12-07T13:08:40;101655.22;;;6.00;100.00
71485;BME280;59300;52.074;4.758;2022-12-07T13:11:44;101671.06;;;6.34;100.00
71485;BME280;59300;52.074;4.758;2022-12-07T13:14:55;101665.75;;;6.15;100.00
71485;BME280;59300;52.074;4.758;2022-12-07T13:17:59;101660.38;;;5.88;100.00
71485;BME280;59300;52.074;4.758;2022-12-07T13:24:10;101651.25;;;5.23;100.00
71485;BME280;59300;52.074;4.758;2022-12-07T13:27:13;101659.69;;;4.85;100.00
71485;BME280;59300;52.074;4.758;2022-12-07T13:30:17;101663.66;;;4.44;100.00
71485;BME280;59300;52.074;4.758;2022-12-07T13:33:19;101659.81;;;4.11;100.00
71485;BME280;59300;52.074;4.758;2022-12-07T13:39:25;101654.28;;;3.87;100.00
71485;BME280;59300;52.074;4.758;2022-12-07T13:42:32;101648.16;;;3.86;100.00
71485;BME280;59300;52.074;4.758;2022-12-07T13:45:34;101647.16;;;3.75;100.00
71485;BME280;59300;52.074;4.758;2022-12-07T13:48:45;101637.56;;;3.72;100.00
71485;BME280;59300;52.074;4.758;2022-12-07T13:51:47;101634.25;;;3.84;100.00
71485;BME280;59300;52.074;4.758;2022-12-07T13:54:58;101642.28;;;4.03;100.00
71485;BME280;59300;52.074;4.758;2022-12-07T13:58:00;101645.84;;;4.09;100.00
71485;BME280;59300;52.074;4.758;2022-12-07T14:01:02;101649.41;;;4.18;100.00
71485;BME280;59300;52.074;4.758;2022-12-07T14:07:28;101627.44;;;3.98;100.00
71485;BME280;59300;52.074;4.758;2022-12-07T14:10:41;101606.53;;;3.95;100.00
71485;BME280;59300;52.074;4.758;2022-12-07T14:14:00;101610.78;;;3.89;100.00
71485;BME280;59300;52.074;4.758;2022-12-07T14:23:37;101596.59;;;3.66;100.00
71485;BME280;59300;52.074;4.758;2022-12-07T14:26:39;101598.25;;;3.60;100.00
71485;BME280;59300;52.074;4.758;2022-12-07T14:29:41;101588.56;;;3.51;100.00
71485;BME280;59300;52.074;4.758;2022-12-07T14:32:43;101591.94;;;3.44;100.00
71485;BME280;59300;52.074;4.758;2022-12-07T14:35:44;101590.16;;;3.40;100.00
71485;BME280;59300;52.074;4.758;2022-12-07T14:38:45;101589.25;;;3.37;100.00
71485;BME280;59300;52.074;4.758;2022-12-07T14:41:47;101587.47;;;3.33;100.00
71485;BME280;59300;52.074;4.758;2022-12-07T14:44:48;101580.41;;;3.28;100.00
71485;BME280;59300;52.074;4.758;2022-12-07T14:47:50;101582.94;;;3.23;100.00
71485;BME280;59300;52.074;4.758;2022-12-07T14:51:12;101588.16;;;3.20;100.00
71485;BME280;59300;52.074;4.758;2022-12-07T14:54:34;101577.66;;;3.17;100.00
71485;BME280;59300;52.074;4.758;2022-12-07T14:57:35;101573.31;;;3.16;100.00
71485;BME280;59300;52.074;4.758;2022-12-07T15:00:37;101574.06;;;3.09;100.00
71485;BME280;59300;52.074;4.758;2022-12-07T15:03:38;101571.44;;;3.07;100.00
71485;BME280;59300;52.074;4.758;2022-12-07T15:06:40;101567.91;;;3.03;100.00
71485;BME280;59300;52.074;4.758;2022-12-07T15:09:41;101559.13;;;2.98;100.00
71485;BME280;59300;52.074;4.758;2022-12-07T15:12:43;101558.22;;;2.96;100.00
71485;BME280;59300;52.074;4.758;2022-12-07T15:15:46;101556.50;;;2.98;100.00
71485;BME280;59300;52.074;4.758;2022-12-07T15:18:47;101553.91;;;2.98;100.00
71485;BME280;59300;52.074;4.758;2022-12-07T15:22:09;101562.56;;;2.94;100.00
71485;BME280;59300;52.074;4.758;2022-12-07T15:25:13;101559.75;;;2.82;100.00
71485;BME280;59300;52.074;4.758;2022-12-07T15:28:15;101551.84;;;2.75;100.00
71485;BME280;59300;52.074;4.758;2022-12-07T15:31:17;101554.38;;;2.72;100.00
71485;BME280;59300;52.074;4.758;2022-12-07T15:34:38;101549.28;;;2.79;100.00
71485;BME280;59300;52.074;4.758;2022-12-07T15:37:41;101572.13;;;2.95;100.00
71485;BME280;59300;52.074;4.758;2022-12-07T15:40:46;101582.03;;;3.18;100.00
71485;BME280;59300;52.074;4.758;2022-12-07T15:43:48;101565.53;;;3.22;100.00
71485;BME280;59300;52.074;4.758;2022-12-07T15:46:49;101561.16;;;3.19;100.00
71485;BME280;59300;52.074;4.758;2022-12-07T15:49:51;101559.28;;;3.07;100.00
71485;BME280;59300;52.074;4.758;2022-12-07T15:52:52;101545.91;;;2.86;100.00
71485;BME280;59300;52.074;4.758;2022-12-07T15:55:54;101555.16;;;2.65;100.00
71485;BME280;59300;52.074;4.758;2022-12-07T15:58:56;101556.66;;;2.52;100.00
71485;BME280;59300;52.074;4.758;2022-12-07T16:01:58;101532.94;;;2.35;100.00
71485;BME280;59300;52.074;4.758;2022-12-07T16:04:59;101543.25;;;2.29;100.00
71485;BME280;59300;52.074;4.758;2022-12-07T16:08:01;101536.16;;;2.20;100.00
71485;BME280;59300;52.074;4.758;2022-12-07T16:11:06;101526.59;;;2.19;100.00
71485;BME280;59300;52.074;4.758;2022-12-07T16:14:08;101522.22;;;2.17;100.00
71485;BME280;59300;52.074;4.758;2022-12-07T16:17:09;101525.59;;;2.12;100.00
71485;BME280;59300;52.074;4.758;2022-12-07T16:20:11;101513.50;;;2.16;100.00
71485;BME280;59300;52.074;4.758;2022-12-07T16:23:12;101513.44;;;2.11;100.00
71485;BME280;59300;52.074;4.758;2022-12-07T16:26:17;101514.25;;;2.09;100.00
71485;BME280;59300;52.074;4.758;2022-12-07T16:29:20;101521.19;;;2.08;100.00
71485;BME280;59300;52.074;4.758;2022-12-07T16:32:22;101516.72;;;2.01;100.00
71485;BME280;59300;52.074;4.758;2022-12-07T16:35:23;101511.44;;;1.98;100.00
71485;BME280;59300;52.074;4.758;2022-12-07T16:38:25;101520.09;;;1.97;100.00
71485;BME280;59300;52.074;4.758;2022-12-07T16:41:26;101509.69;;;1.95;100.00
71485;BME280;59300;52.074;4.758;2022-12-07T16:44:28;101500.19;;;1.97;100.00
71485;BME280;59300;52.074;4.758;2022-12-07T16:47:29;101497.66;;;2.02;100.00
71485;BME280;59300;52.074;4.758;2022-12-07T16:50:31;101503.84;;;2.09;100.00
71485;BME280;59300;52.074;4.758;2022-12-07T16:53:32;101496.88;;;2.08;100.00
71485;BME280;59300;52.074;4.758;2022-12-07T16:56:34;101499.69;;;2.19;100.00
71485;BME280;59300;52.074;4.758;2022-12-07T16:59:35;101483.09;;;2.15;100.00
71485;BME280;59300;52.074;4.758;2022-12-07T17:02:37;101490.03;;;2.13;100.00
71485;BME280;59300;52.074;4.758;2022-12-07T17:05:39;101488.31;;;2.15;100.00
71485;BME280;59300;52.074;4.758;2022-12-07T17:08:42;101483.09;;;2.15;100.00
71485;BME280;59300;52.074;4.758;2022-12-07T17:11:45;101479.69;;;2.18;100.00
71485;BME280;59300;52.074;4.758;2022-12-07T17:14:46;101478.84;;;2.19;100.00
71485;BME280;59300;52.074;4.758;2022-12-07T17:17:53;101471.88;;;2.18;100.00
71485;BME280;59300;52.074;4.758;2022-12-07T17:20:55;101473.63;;;2.19;100.00
71485;BME280;59300;52.074;4.758;2022-12-07T17:24:04;101462.41;;;2.23;100.00
71485;BME280;59300;52.074;4.758;2022-12-07T17:27:06;101466.81;;;2.27;100.00
71485;BME280;59300;52.074;4.758;2022-12-07T17:30:08;101471.38;;;2.42;100.00
71485;BME280;59300;52.074;4.758;2022-12-07T17:33:10;101478.53;;;2.55;100.00
71485;BME280;59300;52.074;4.758;2022-12-07T17:36:22;101471.97;;;2.81;100.00
71485;BME280;59300;52.074;4.758;2022-12-07T17:39:23;101468.59;;;2.88;100.00
71485;BME280;59300;52.074;4.758;2022-12-07T17:42:26;101472.22;;;2.99;100.00
71485;BME280;59300;52.074;4.758;2022-12-07T17:45:27;101457.47;;;3.01;100.00
71485;BME280;59300;52.074;4.758;2022-12-07T17:48:29;101457.34;;;2.92;100.00
71485;BME280;59300;52.074;4.758;2022-12-07T17:51:30;101452.19;;;2.95;100.00
71485;BME280;59300;52.074;4.758;2022-12-07T17:54:32;101455.56;;;2.88;100.00
71485;BME280;59300;52.074;4.758;2022-12-07T17:57:34;101452.94;;;2.88;100.00
71485;BME280;59300;52.074;4.758;2022-12-07T18:00:35;101448.69;;;2.93;100.00
71485;BME280;59300;52.074;4.758;2022-12-07T18:03:37;101443.44;;;2.90;100.00